sensor_id;sensor_type;location;lat;lon;timestamp;temperature;humidity
17080;DHT22;8655;57.106;-2.088;2022-09-03T00:00:46;21.20;66.30
17080;DHT22;8655;57.106;-2.088;2022-09-03T00:03:22;21.20;66.30
17080;DHT22;8655;57.106;-2.088;2022-09-03T00:06:13;21.20;66.30
17080;DHT22;8655;57.106;-2.088;2022-09-03T00:11:51;21.20;66.30
17080;DHT22;8655;57.106;-2.088;2022-09-03T00:14:19;21.20;66.30
17080;DHT22;8655;57.106;-2.088;2022-09-03T00:16:58;21.20;66.40
17080;DHT22;8655;57.106;-2.088;2022-09-03T00:19:30;21.20;66.30
17080;DHT22;8655;57.106;-2.088;2022-09-03T00:22:02;21.20;66.40
17080;DHT22;8655;57.106;-2.088;2022-09-03T00:24:35;21.20;66.30
17080;DHT22;8655;57.106;-2.088;2022-09-03T00:27:05;21.20;66.30
17080;DHT22;8655;57.106;-2.088;2022-09-03T00:30:03;21.20;66.40
17080;DHT22;8655;57.106;-2.088;2022-09-03T00:35:24;21.20;66.30
17080;DHT22;8655;57.106;-2.088;2022-09-03T00:37:52;21.20;66.40
17080;DHT22;8655;57.106;-2.088;2022-09-03T00:42:57;21.20;66.40
17080;DHT22;8655;57.106;-2.088;2022-09-03T00:48:26;21.20;66.30
17080;DHT22;8655;57.106;-2.088;2022-09-03T00:54:40;21.20;66.30
17080;DHT22;8655;57.106;-2.088;2022-09-03T01:00:13;21.20;66.30
17080;DHT22;8655;57.106;-2.088;2022-09-03T01:03:10;21.20;66.30
17080;DHT22;8655;57.106;-2.088;2022-09-03T01:28:00;21.10;66.30
17080;DHT22;8655;57.106;-2.088;2022-09-03T01:30:30;21.10;66.30
17080;DHT22;8655;57.106;-2.088;2022-09-03T01:33:18;21.10;66.30
17080;DHT22;8655;57.106;-2.088;2022-09-03T01:35:55;21.10;66.30
17080;DHT22;8655;57.106;-2.088;2022-09-03T01:44:41;21.10;66.30
17080;DHT22;8655;57.106;-2.088;2022-09-03T01:47:51;21.10;66.30
17080;DHT22;8655;57.106;-2.088;2022-09-03T01:54:19;21.10;66.30
17080;DHT22;8655;57.106;-2.088;2022-09-03T01:59:26;21.10;66.30
17080;DHT22;8655;57.106;-2.088;2022-09-03T02:01:57;21.10;66.30
17080;DHT22;8655;57.106;-2.088;2022-09-03T02:04:25;21.10;66.30
17080;DHT22;8655;57.106;-2.088;2022-09-03T02:06:52;21.10;66.30
17080;DHT22;8655;57.106;-2.088;2022-09-03T02:09:19;21.10;66.30
17080;DHT22;8655;57.106;-2.088;2022-09-03T02:12:10;21.10;66.40
17080;DHT22;8655;57.106;-2.088;2022-09-03T02:14:39;21.10;66.30
17080;DHT22;8655;57.106;-2.088;2022-09-03T02:17:06;21.10;66.30
17080;DHT22;8655;57.106;-2.088;2022-09-03T02:19:32;21.10;66.30
17080;DHT22;8655;57.106;-2.088;2022-09-03T02:21:59;21.10;66.30
17080;DHT22;8655;57.106;-2.088;2022-09-03T02:24:26;21.10;66.30
17080;DHT22;8655;57.106;-2.088;2022-09-03T02:26:52;21.10;66.40
17080;DHT22;8655;57.106;-2.088;2022-09-03T02:29:18;21.10;66.30
17080;DHT22;8655;57.106;-2.088;2022-09-03T02:31:44;21.10;66.30
17080;DHT22;8655;57.106;-2.088;2022-09-03T02:34:10;21.10;66.30
17080;DHT22;8655;57.106;-2.088;2022-09-03T02:36:39;21.10;66.30
17080;DHT22;8655;57.106;-2.088;2022-09-03T02:39:06;21.10;66.30
17080;DHT22;8655;57.106;-2.088;2022-09-03T02:41:32;21.10;66.40
17080;DHT22;8655;57.106;-2.088;2022-09-03T02:44:10;21.10;66.30
17080;DHT22;8655;57.106;-2.088;2022-09-03T02:46:49;21.10;66.30
17080;DHT22;8655;57.106;-2.088;2022-09-03T02:49:16;21.10;66.30
17080;DHT22;8655;57.106;-2.088;2022-09-03T02:51:43;21.10;66.40
17080;DHT22;8655;57.106;-2.088;2022-09-03T02:54:10;21.10;66.40
17080;DHT22;8655;57.106;-2.088;2022-09-03T02:56:36;21.10;66.30
17080;DHT22;8655;57.106;-2.088;2022-09-03T02:59:06;21.10;66.40
17080;DHT22;8655;57.106;-2.088;2022-09-03T03:01:33;21.10;66.40
17080;DHT22;8655;57.106;-2.088;2022-09-03T03:04:00;21.10;66.30
17080;DHT22;8655;57.106;-2.088;2022-09-03T03:06:25;21.10;66.40
17080;DHT22;8655;57.106;-2.088;2022-09-03T03:08:51;21.10;66.40
17080;DHT22;8655;57.106;-2.088;2022-09-03T03:11:20;21.10;67.10
17080;DHT22;8655;57.106;-2.088;2022-09-03T03:13:46;21.10;66.40
17080;DHT22;8655;57.106;-2.088;2022-09-03T03:16:14;21.10;66.40
17080;DHT22;8655;57.106;-2.088;2022-09-03T03:18:40;21.10;66.40
17080;DHT22;8655;57.106;-2.088;2022-09-03T03:21:08;21.10;66.40
17080;DHT22;8655;57.106;-2.088;2022-09-03T03:23:35;21.10;66.40
17080;DHT22;8655;57.106;-2.088;2022-09-03T03:26:03;21.10;66.40
17080;DHT22;8655;57.106;-2.088;2022-09-03T03:28:29;21.10;66.40
17080;DHT22;8655;57.106;-2.088;2022-09-03T03:33:30;21.10;66.40
17080;DHT22;8655;57.106;-2.088;2022-09-03T03:35:56;21.10;66.40
17080;DHT22;8655;57.106;-2.088;2022-09-03T03:38:21;21.10;66.40
17080;DHT22;8655;57.106;-2.088;2022-09-03T03:40:47;21.10;66.40
17080;DHT22;8655;57.106;-2.088;2022-09-03T03:43:13;21.10;66.40
17080;DHT22;8655;57.106;-2.088;2022-09-03T03:45:38;21.10;66.40
17080;DHT22;8655;57.106;-2.088;2022-09-03T03:48:04;21.10;66.40
17080;DHT22;8655;57.106;-2.088;2022-09-03T03:50:29;21.10;66.40
17080;DHT22;8655;57.106;-2.088;2022-09-03T03:52:58;21.10;66.40
17080;DHT22;8655;57.106;-2.088;2022-09-03T03:55:25;21.10;66.40
17080;DHT22;8655;57.106;-2.088;2022-09-03T03:57:50;21.10;66.40
17080;DHT22;8655;57.106;-2.088;2022-09-03T04:00:16;21.10;66.40
17080;DHT22;8655;57.106;-2.088;2022-09-03T04:02:42;21.10;66.40
17080;DHT22;8655;57.106;-2.088;2022-09-03T04:05:08;21.10;66.40
17080;DHT22;8655;57.106;-2.088;2022-09-03T04:07:33;21.10;66.40
17080;DHT22;8655;57.106;-2.088;2022-09-03T04:09:59;21.10;66.40
17080;DHT22;8655;57.106;-2.088;2022-09-03T04:12:26;21.10;66.40
17080;DHT22;8655;57.106;-2.088;2022-09-03T04:14:51;21.10;66.40
17080;DHT22;8655;57.106;-2.088;2022-09-03T04:17:17;21.10;66.50
17080;DHT22;8655;57.106;-2.088;2022-09-03T04:19:43;21.10;66.50
17080;DHT22;8655;57.106;-2.088;2022-09-03T04:22:12;21.10;66.50
17080;DHT22;8655;57.106;-2.088;2022-09-03T04:24:40;21.10;66.40
17080;DHT22;8655;57.106;-2.088;2022-09-03T04:27:05;21.10;66.50
17080;DHT22;8655;57.106;-2.088;2022-09-03T04:29:31;21.10;66.50
17080;DHT22;8655;57.106;-2.088;2022-09-03T04:31:57;21.00;66.40
17080;DHT22;8655;57.106;-2.088;2022-09-03T04:34:41;21.10;66.40
17080;DHT22;8655;57.106;-2.088;2022-09-03T04:37:06;21.10;66.50
17080;DHT22;8655;57.106;-2.088;2022-09-03T04:39:33;21.10;66.50
17080;DHT22;8655;57.106;-2.088;2022-09-03T04:41:59;21.10;66.50
17080;DHT22;8655;57.106;-2.088;2022-09-03T04:44:24;21.00;66.40
17080;DHT22;8655;57.106;-2.088;2022-09-03T04:46:50;21.00;66.40
17080;DHT22;8655;57.106;-2.088;2022-09-03T04:49:17;21.00;66.50
17080;DHT22;8655;57.106;-2.088;2022-09-03T04:51:44;21.10;66.50
17080;DHT22;8655;57.106;-2.088;2022-09-03T04:54:09;21.00;66.40
17080;DHT22;8655;57.106;-2.088;2022-09-03T04:56:37;21.00;66.40
17080;DHT22;8655;57.106;-2.088;2022-09-03T04:59:07;21.00;66.40
17080;DHT22;8655;57.106;-2.088;2022-09-03T05:01:35;21.10;66.50
17080;DHT22;8655;57.106;-2.088;2022-09-03T05:04:01;21.00;66.40
17080;DHT22;8655;57.106;-2.088;2022-09-03T05:06:28;21.00;66.40
17080;DHT22;8655;57.106;-2.088;2022-09-03T05:08:55;21.00;66.40
17080;DHT22;8655;57.106;-2.088;2022-09-03T05:11:21;21.00;66.40
17080;DHT22;8655;57.106;-2.088;2022-09-03T05:13:48;21.10;66.50
17080;DHT22;8655;57.106;-2.088;2022-09-03T05:16:15;21.00;66.40
17080;DHT22;8655;57.106;-2.088;2022-09-03T05:18:41;21.00;66.40
17080;DHT22;8655;57.106;-2.088;2022-09-03T05:21:09;21.00;66.50
17080;DHT22;8655;57.106;-2.088;2022-09-03T05:23:40;21.10;66.60
17080;DHT22;8655;57.106;-2.088;2022-09-03T05:26:09;21.00;66.50
17080;DHT22;8655;57.106;-2.088;2022-09-03T05:28:37;21.00;66.50
17080;DHT22;8655;57.106;-2.088;2022-09-03T05:31:04;21.00;66.50
17080;DHT22;8655;57.106;-2.088;2022-09-03T05:33:44;21.00;66.50
17080;DHT22;8655;57.106;-2.088;2022-09-03T05:36:12;21.00;66.40
17080;DHT22;8655;57.106;-2.088;2022-09-03T05:38:38;21.00;66.40
17080;DHT22;8655;57.106;-2.088;2022-09-03T05:41:06;21.00;66.50
17080;DHT22;8655;57.106;-2.088;2022-09-03T05:43:33;21.00;66.50
17080;DHT22;8655;57.106;-2.088;2022-09-03T05:46:04;21.00;66.50
17080;DHT22;8655;57.106;-2.088;2022-09-03T05:48:31;21.00;66.50
17080;DHT22;8655;57.106;-2.088;2022-09-03T05:51:06;21.00;66.50
17080;DHT22;8655;57.106;-2.088;2022-09-03T05:53:35;21.00;66.50
17080;DHT22;8655;57.106;-2.088;2022-09-03T05:56:03;21.00;66.50
17080;DHT22;8655;57.106;-2.088;2022-09-03T05:58:34;21.00;66.50
17080;DHT22;8655;57.106;-2.088;2022-09-03T06:01:13;21.00;66.50
17080;DHT22;8655;57.106;-2.088;2022-09-03T06:03:40;21.00;66.50
17080;DHT22;8655;57.106;-2.088;2022-09-03T06:06:06;21.00;66.50
17080;DHT22;8655;57.106;-2.088;2022-09-03T06:08:33;21.00;66.50
17080;DHT22;8655;57.106;-2.088;2022-09-03T06:11:01;21.00;66.50
17080;DHT22;8655;57.106;-2.088;2022-09-03T06:13:31;21.00;66.50
17080;DHT22;8655;57.106;-2.088;2022-09-03T06:15:59;21.00;66.50
17080;DHT22;8655;57.106;-2.088;2022-09-03T06:18:26;21.00;66.60
17080;DHT22;8655;57.106;-2.088;2022-09-03T06:21:01;21.00;66.50
17080;DHT22;8655;57.106;-2.088;2022-09-03T06:23:27;21.00;66.50
17080;DHT22;8655;57.106;-2.088;2022-09-03T06:26:12;21.00;66.60
17080;DHT22;8655;57.106;-2.088;2022-09-03T06:28:40;21.00;66.60
17080;DHT22;8655;57.106;-2.088;2022-09-03T06:31:09;21.00;66.50
17080;DHT22;8655;57.106;-2.088;2022-09-03T06:33:36;21.00;66.50
17080;DHT22;8655;57.106;-2.088;2022-09-03T06:36:05;21.00;66.50
17080;DHT22;8655;57.106;-2.088;2022-09-03T06:38:32;21.00;66.60
17080;DHT22;8655;57.106;-2.088;2022-09-03T06:41:01;21.00;66.50
17080;DHT22;8655;57.106;-2.088;2022-09-03T06:43:30;21.00;66.60
17080;DHT22;8655;57.106;-2.088;2022-09-03T06:46:01;21.00;66.60
17080;DHT22;8655;57.106;-2.088;2022-09-03T06:48:28;21.00;66.60
17080;DHT22;8655;57.106;-2.088;2022-09-03T06:51:00;21.00;66.60
17080;DHT22;8655;57.106;-2.088;2022-09-03T06:53:29;21.00;66.60
17080;DHT22;8655;57.106;-2.088;2022-09-03T06:56:01;21.00;66.60
17080;DHT22;8655;57.106;-2.088;2022-09-03T06:58:35;21.00;66.80
17080;DHT22;8655;57.106;-2.088;2022-09-03T07:01:10;21.00;66.60
17080;DHT22;8655;57.106;-2.088;2022-09-03T07:03:38;21.00;66.60
17080;DHT22;8655;57.106;-2.088;2022-09-03T07:06:09;21.00;66.60
17080;DHT22;8655;57.106;-2.088;2022-09-03T07:08:35;21.00;66.60
17080;DHT22;8655;57.106;-2.088;2022-09-03T07:11:06;21.00;66.60
17080;DHT22;8655;57.106;-2.088;2022-09-03T07:13:40;21.00;66.60
17080;DHT22;8655;57.106;-2.088;2022-09-03T07:16:11;21.00;66.60
17080;DHT22;8655;57.106;-2.088;2022-09-03T07:18:38;21.00;66.60
17080;DHT22;8655;57.106;-2.088;2022-09-03T07:21:29;21.00;66.60
17080;DHT22;8655;57.106;-2.088;2022-09-03T07:23:55;21.00;66.60
17080;DHT22;8655;57.106;-2.088;2022-09-03T07:26:22;21.00;66.60
17080;DHT22;8655;57.106;-2.088;2022-09-03T07:28:48;21.00;66.60
17080;DHT22;8655;57.106;-2.088;2022-09-03T07:31:20;21.00;66.60
17080;DHT22;8655;57.106;-2.088;2022-09-03T07:33:53;21.00;66.60
17080;DHT22;8655;57.106;-2.088;2022-09-03T07:36:20;21.00;66.60
17080;DHT22;8655;57.106;-2.088;2022-09-03T07:38:46;21.00;66.60
17080;DHT22;8655;57.106;-2.088;2022-09-03T07:41:13;21.00;66.70
17080;DHT22;8655;57.106;-2.088;2022-09-03T07:43:45;21.00;66.70
17080;DHT22;8655;57.106;-2.088;2022-09-03T07:46:19;21.00;67.30
17080;DHT22;8655;57.106;-2.088;2022-09-03T07:48:49;21.00;66.70
17080;DHT22;8655;57.106;-2.088;2022-09-03T07:51:15;21.00;66.70
17080;DHT22;8655;57.106;-2.088;2022-09-03T07:53:43;21.00;66.70
17080;DHT22;8655;57.106;-2.088;2022-09-03T07:56:10;21.00;66.70
17080;DHT22;8655;57.106;-2.088;2022-09-03T07:58:36;21.00;66.70
17080;DHT22;8655;57.106;-2.088;2022-09-03T08:01:08;21.00;66.70
17080;DHT22;8655;57.106;-2.088;2022-09-03T08:03:34;21.00;66.70
17080;DHT22;8655;57.106;-2.088;2022-09-03T08:06:02;21.00;66.70
17080;DHT22;8655;57.106;-2.088;2022-09-03T08:08:29;21.00;66.70
17080;DHT22;8655;57.106;-2.088;2022-09-03T08:11:05;21.00;66.70
17080;DHT22;8655;57.106;-2.088;2022-09-03T08:13:48;21.00;66.80
17080;DHT22;8655;57.106;-2.088;2022-09-03T08:16:16;21.00;66.80
17080;DHT22;8655;57.106;-2.088;2022-09-03T08:18:42;21.00;66.70
17080;DHT22;8655;57.106;-2.088;2022-09-03T08:21:11;21.00;66.70
17080;DHT22;8655;57.106;-2.088;2022-09-03T08:23:40;21.00;66.80
17080;DHT22;8655;57.106;-2.088;2022-09-03T08:26:07;21.00;66.70
17080;DHT22;8655;57.106;-2.088;2022-09-03T08:28:34;21.00;66.80
17080;DHT22;8655;57.106;-2.088;2022-09-03T08:33:41;21.00;66.80
17080;DHT22;8655;57.106;-2.088;2022-09-03T08:36:21;21.00;66.80
17080;DHT22;8655;57.106;-2.088;2022-09-03T08:38:48;21.00;66.80
17080;DHT22;8655;57.106;-2.088;2022-09-03T08:47:09;21.00;66.80
17080;DHT22;8655;57.106;-2.088;2022-09-03T08:52:42;21.00;66.80
17080;DHT22;8655;57.106;-2.088;2022-09-03T08:55:22;21.00;66.80
17080;DHT22;8655;57.106;-2.088;2022-09-03T08:57:55;21.00;66.80
17080;DHT22;8655;57.106;-2.088;2022-09-03T09:00:21;21.00;66.90
17080;DHT22;8655;57.106;-2.088;2022-09-03T09:03:06;21.00;66.90
17080;DHT22;8655;57.106;-2.088;2022-09-03T09:05:53;21.00;66.90
17080;DHT22;8655;57.106;-2.088;2022-09-03T09:16:29;21.00;66.90
17080;DHT22;8655;57.106;-2.088;2022-09-03T09:21:36;21.00;66.90
17080;DHT22;8655;57.106;-2.088;2022-09-03T09:24:23;21.00;66.90
17080;DHT22;8655;57.106;-2.088;2022-09-03T09:27:03;21.00;66.90
17080;DHT22;8655;57.106;-2.088;2022-09-03T09:29:32;21.00;66.90
17080;DHT22;8655;57.106;-2.088;2022-09-03T09:32:00;21.00;66.90
17080;DHT22;8655;57.106;-2.088;2022-09-03T09:34:26;21.00;66.90
17080;DHT22;8655;57.106;-2.088;2022-09-03T09:36:53;21.00;67.00
17080;DHT22;8655;57.106;-2.088;2022-09-03T09:39:20;21.00;67.00
17080;DHT22;8655;57.106;-2.088;2022-09-03T09:42:09;21.00;67.00
17080;DHT22;8655;57.106;-2.088;2022-09-03T09:44:41;21.00;67.00
17080;DHT22;8655;57.106;-2.088;2022-09-03T09:47:12;21.00;67.00
17080;DHT22;8655;57.106;-2.088;2022-09-03T09:52:13;21.00;67.00
17080;DHT22;8655;57.106;-2.088;2022-09-03T09:54:40;21.00;67.10
17080;DHT22;8655;57.106;-2.088;2022-09-03T09:57:13;21.10;67.20
17080;DHT22;8655;57.106;-2.088;2022-09-03T09:59:42;21.00;67.10
17080;DHT22;8655;57.106;-2.088;2022-09-03T10:02:25;21.10;67.20
17080;DHT22;8655;57.106;-2.088;2022-09-03T10:08:00;21.00;67.10
17080;DHT22;8655;57.106;-2.088;2022-09-03T10:10:31;21.10;67.20
17080;DHT22;8655;57.106;-2.088;2022-09-03T10:13:05;21.10;67.20
17080;DHT22;8655;57.106;-2.088;2022-09-03T10:21:29;21.10;67.20
17080;DHT22;8655;57.106;-2.088;2022-09-03T10:24:05;21.10;67.20
17080;DHT22;8655;57.106;-2.088;2022-09-03T10:26:34;21.10;67.20
17080;DHT22;8655;57.106;-2.088;2022-09-03T10:29:03;21.10;67.20
17080;DHT22;8655;57.106;-2.088;2022-09-03T10:34:08;21.10;67.20
17080;DHT22;8655;57.106;-2.088;2022-09-03T10:36:58;21.10;67.20
17080;DHT22;8655;57.106;-2.088;2022-09-03T10:39:43;21.10;67.20
17080;DHT22;8655;57.106;-2.088;2022-09-03T10:50:18;21.10;67.20
17080;DHT22;8655;57.106;-2.088;2022-09-03T10:58:44;21.10;67.30
17080;DHT22;8655;57.106;-2.088;2022-09-03T11:04:24;21.20;67.40
17080;DHT22;8655;57.106;-2.088;2022-09-03T11:09:34;21.20;67.40
17080;DHT22;8655;57.106;-2.088;2022-09-03T11:12:09;21.20;67.40
17080;DHT22;8655;57.106;-2.088;2022-09-03T11:14:43;21.20;67.50
17080;DHT22;8655;57.106;-2.088;2022-09-03T11:17:27;21.20;67.50
17080;DHT22;8655;57.106;-2.088;2022-09-03T11:19:59;21.20;67.40
17080;DHT22;8655;57.106;-2.088;2022-09-03T11:22:28;21.20;67.50
17080;DHT22;8655;57.106;-2.088;2022-09-03T11:24:59;21.20;67.50
17080;DHT22;8655;57.106;-2.088;2022-09-03T11:30:03;21.20;67.50
17080;DHT22;8655;57.106;-2.088;2022-09-03T11:34:57;21.20;67.50
17080;DHT22;8655;57.106;-2.088;2022-09-03T11:37:27;21.20;67.50
17080;DHT22;8655;57.106;-2.088;2022-09-03T11:42:38;21.30;67.60
17080;DHT22;8655;57.106;-2.088;2022-09-03T11:47:49;21.30;67.60
17080;DHT22;8655;57.106;-2.088;2022-09-03T11:50:25;21.30;67.60
17080;DHT22;8655;57.106;-2.088;2022-09-03T11:56:19;21.30;67.60
17080;DHT22;8655;57.106;-2.088;2022-09-03T11:58:44;21.30;67.60
17080;DHT22;8655;57.106;-2.088;2022-09-03T12:01:13;21.30;67.60
17080;DHT22;8655;57.106;-2.088;2022-09-03T12:03:57;21.30;67.70
17080;DHT22;8655;57.106;-2.088;2022-09-03T12:18:07;21.30;67.80
17080;DHT22;8655;57.106;-2.088;2022-09-03T12:20:44;21.30;67.70
17080;DHT22;8655;57.106;-2.088;2022-09-03T12:23:11;21.30;67.80
17080;DHT22;8655;57.106;-2.088;2022-09-03T12:25:45;21.30;67.80
17080;DHT22;8655;57.106;-2.088;2022-09-03T12:28:16;21.30;67.80
17080;DHT22;8655;57.106;-2.088;2022-09-03T12:30:46;21.30;67.80
17080;DHT22;8655;57.106;-2.088;2022-09-03T12:33:12;21.30;67.80
17080;DHT22;8655;57.106;-2.088;2022-09-03T12:35:38;21.40;67.90
17080;DHT22;8655;57.106;-2.088;2022-09-03T12:38:04;21.40;67.90
17080;DHT22;8655;57.106;-2.088;2022-09-03T12:40:30;21.40;68.60
17080;DHT22;8655;57.106;-2.088;2022-09-03T12:43:12;21.40;68.00
17080;DHT22;8655;57.106;-2.088;2022-09-03T12:45:44;21.40;68.00
17080;DHT22;8655;57.106;-2.088;2022-09-03T12:48:14;21.40;68.00
17080;DHT22;8655;57.106;-2.088;2022-09-03T12:50:41;21.40;68.00
17080;DHT22;8655;57.106;-2.088;2022-09-03T12:53:08;21.40;68.00
17080;DHT22;8655;57.106;-2.088;2022-09-03T12:55:53;21.40;68.00
17080;DHT22;8655;57.106;-2.088;2022-09-03T12:58:42;21.40;68.00
17080;DHT22;8655;57.106;-2.088;2022-09-03T13:01:15;21.40;68.00
17080;DHT22;8655;57.106;-2.088;2022-09-03T13:04:12;21.40;68.00
17080;DHT22;8655;57.106;-2.088;2022-09-03T13:07:00;21.40;68.00
17080;DHT22;8655;57.106;-2.088;2022-09-03T13:09:29;21.50;68.10
17080;DHT22;8655;57.106;-2.088;2022-09-03T13:11:57;21.40;68.00
17080;DHT22;8655;57.106;-2.088;2022-09-03T13:14:44;21.50;68.10
17080;DHT22;8655;57.106;-2.088;2022-09-03T13:20:15;21.50;68.20
17080;DHT22;8655;57.106;-2.088;2022-09-03T13:23:09;21.50;68.20
17080;DHT22;8655;57.106;-2.088;2022-09-03T13:33:52;21.50;68.20
17080;DHT22;8655;57.106;-2.088;2022-09-03T13:36:24;21.50;68.30
17080;DHT22;8655;57.106;-2.088;2022-09-03T13:38:58;21.50;68.30
17080;DHT22;8655;57.106;-2.088;2022-09-03T13:41:45;21.50;68.30
17080;DHT22;8655;57.106;-2.088;2022-09-03T13:44:33;21.50;68.30
17080;DHT22;8655;57.106;-2.088;2022-09-03T13:47:08;21.50;68.30
17080;DHT22;8655;57.106;-2.088;2022-09-03T13:50:10;21.50;68.30
17080;DHT22;8655;57.106;-2.088;2022-09-03T13:52:56;21.50;68.30
17080;DHT22;8655;57.106;-2.088;2022-09-03T13:55:43;21.50;68.30
17080;DHT22;8655;57.106;-2.088;2022-09-03T13:58:35;21.50;68.30
17080;DHT22;8655;57.106;-2.088;2022-09-03T14:01:16;21.50;68.30
17080;DHT22;8655;57.106;-2.088;2022-09-03T14:03:52;21.60;68.40
17080;DHT22;8655;57.106;-2.088;2022-09-03T14:06:41;21.60;69.10
17080;DHT22;8655;57.106;-2.088;2022-09-03T14:12:24;21.60;68.40
17080;DHT22;8655;57.106;-2.088;2022-09-03T14:23:01;21.60;68.50
17080;DHT22;8655;57.106;-2.088;2022-09-03T14:25:28;21.60;68.50
17080;DHT22;8655;57.106;-2.088;2022-09-03T14:27:54;21.60;68.50
17080;DHT22;8655;57.106;-2.088;2022-09-03T14:30:45;21.60;68.50
17080;DHT22;8655;57.106;-2.088;2022-09-03T14:33:35;21.60;68.50
17080;DHT22;8655;57.106;-2.088;2022-09-03T14:41:50;21.60;68.50
17080;DHT22;8655;57.106;-2.088;2022-09-03T14:44:29;21.60;68.50
17080;DHT22;8655;57.106;-2.088;2022-09-03T14:47:17;21.60;68.50
17080;DHT22;8655;57.106;-2.088;2022-09-03T15:01:32;21.60;68.50
17080;DHT22;8655;57.106;-2.088;2022-09-03T15:04:31;21.70;68.70
17080;DHT22;8655;57.106;-2.088;2022-09-03T15:12:39;21.70;68.70
17080;DHT22;8655;57.106;-2.088;2022-09-03T15:15:50;21.70;68.70
17080;DHT22;8655;57.106;-2.088;2022-09-03T15:18:24;21.70;68.70
17080;DHT22;8655;57.106;-2.088;2022-09-03T15:20:53;21.70;68.70
17080;DHT22;8655;57.106;-2.088;2022-09-03T15:29:20;21.70;68.70
17080;DHT22;8655;57.106;-2.088;2022-09-03T15:32:47;21.70;68.70
17080;DHT22;8655;57.106;-2.088;2022-09-03T15:38:00;21.70;68.70
17080;DHT22;8655;57.106;-2.088;2022-09-03T15:40:33;21.70;68.70
17080;DHT22;8655;57.106;-2.088;2022-09-03T15:43:16;21.70;68.70
17080;DHT22;8655;57.106;-2.088;2022-09-03T15:51:44;21.70;68.70
17080;DHT22;8655;57.106;-2.088;2022-09-03T15:53:55;21.70;68.70
17080;DHT22;8655;57.106;-2.088;2022-09-03T15:56:33;21.80;68.80
17080;DHT22;8655;57.106;-2.088;2022-09-03T15:59:59;21.80;68.80
17080;DHT22;8655;57.106;-2.088;2022-09-03T16:07:26;21.80;69.60
17080;DHT22;8655;57.106;-2.088;2022-09-03T16:10:17;21.80;68.80
17080;DHT22;8655;57.106;-2.088;2022-09-03T16:13:08;21.80;68.80
17080;DHT22;8655;57.106;-2.088;2022-09-03T16:15:50;21.80;68.80
17080;DHT22;8655;57.106;-2.088;2022-09-03T16:18:26;21.80;68.80
17080;DHT22;8655;57.106;-2.088;2022-09-03T16:21:10;21.80;68.90
17080;DHT22;8655;57.106;-2.088;2022-09-03T16:23:54;21.80;68.90
17080;DHT22;8655;57.106;-2.088;2022-09-03T16:29:07;21.80;68.90
17080;DHT22;8655;57.106;-2.088;2022-09-03T16:37:34;21.80;68.90
17080;DHT22;8655;57.106;-2.088;2022-09-03T16:42:52;21.80;68.80
17080;DHT22;8655;57.106;-2.088;2022-09-03T16:45:45;21.80;68.80
17080;DHT22;8655;57.106;-2.088;2022-09-03T16:48:31;21.80;68.80
17080;DHT22;8655;57.106;-2.088;2022-09-03T16:59:26;21.80;68.90
17080;DHT22;8655;57.106;-2.088;2022-09-03T17:07:13;21.80;68.90
17080;DHT22;8655;57.106;-2.088;2022-09-03T17:10:07;21.80;68.90
17080;DHT22;8655;57.106;-2.088;2022-09-03T17:21:13;21.90;69.00
17080;DHT22;8655;57.106;-2.088;2022-09-03T17:26:49;21.90;68.90
17080;DHT22;8655;57.106;-2.088;2022-09-03T17:29:54;21.90;68.90
17080;DHT22;8655;57.106;-2.088;2022-09-03T17:35:10;21.90;68.90
17080;DHT22;8655;57.106;-2.088;2022-09-03T17:40:24;21.90;69.00
17080;DHT22;8655;57.106;-2.088;2022-09-03T17:49:17;21.90;69.00
17080;DHT22;8655;57.106;-2.088;2022-09-03T17:51:43;21.90;69.00
17080;DHT22;8655;57.106;-2.088;2022-09-03T17:56:59;21.90;68.90
17080;DHT22;8655;57.106;-2.088;2022-09-03T18:02:31;21.90;69.00
17080;DHT22;8655;57.106;-2.088;2022-09-03T18:05:09;21.90;68.90
17080;DHT22;8655;57.106;-2.088;2022-09-03T18:07:54;21.90;69.00
17080;DHT22;8655;57.106;-2.088;2022-09-03T18:13:20;21.90;69.00
17080;DHT22;8655;57.106;-2.088;2022-09-03T18:16:13;21.90;69.00
17080;DHT22;8655;57.106;-2.088;2022-09-03T18:18:45;21.90;69.00
17080;DHT22;8655;57.106;-2.088;2022-09-03T18:21:21;21.90;69.00
17080;DHT22;8655;57.106;-2.088;2022-09-03T18:24:28;21.90;69.00
17080;DHT22;8655;57.106;-2.088;2022-09-03T18:27:21;21.90;69.00
17080;DHT22;8655;57.106;-2.088;2022-09-03T18:30:12;21.90;69.00
17080;DHT22;8655;57.106;-2.088;2022-09-03T18:32:58;21.90;69.10
17080;DHT22;8655;57.106;-2.088;2022-09-03T18:35:44;21.90;69.00
17080;DHT22;8655;57.106;-2.088;2022-09-03T18:38:32;21.90;69.00
17080;DHT22;8655;57.106;-2.088;2022-09-03T18:50:52;21.90;69.10
17080;DHT22;8655;57.106;-2.088;2022-09-03T18:53:38;21.90;69.00
17080;DHT22;8655;57.106;-2.088;2022-09-03T18:56:48;21.90;69.00
17080;DHT22;8655;57.106;-2.088;2022-09-03T19:02:28;21.90;69.10
17080;DHT22;8655;57.106;-2.088;2022-09-03T19:05:24;21.90;69.10
17080;DHT22;8655;57.106;-2.088;2022-09-03T19:08:24;21.90;69.10
17080;DHT22;8655;57.106;-2.088;2022-09-03T19:11:36;21.80;69.00
17080;DHT22;8655;57.106;-2.088;2022-09-03T19:20:31;21.80;68.90
17080;DHT22;8655;57.106;-2.088;2022-09-03T19:23:18;21.90;69.10
17080;DHT22;8655;57.106;-2.088;2022-09-03T19:29:43;21.80;68.90
17080;DHT22;8655;57.106;-2.088;2022-09-03T19:35:40;21.80;68.90
17080;DHT22;8655;57.106;-2.088;2022-09-03T19:38:39;21.90;69.00
17080;DHT22;8655;57.106;-2.088;2022-09-03T19:41:38;21.80;68.90
17080;DHT22;8655;57.106;-2.088;2022-09-03T19:44:59;21.80;69.00
17080;DHT22;8655;57.106;-2.088;2022-09-03T19:51:19;21.80;68.90
17080;DHT22;8655;57.106;-2.088;2022-09-03T19:54:05;21.80;68.90
17080;DHT22;8655;57.106;-2.088;2022-09-03T19:56:54;21.80;68.90
17080;DHT22;8655;57.106;-2.088;2022-09-03T19:59:40;21.80;68.90
17080;DHT22;8655;57.106;-2.088;2022-09-03T20:02:27;21.80;68.90
17080;DHT22;8655;57.106;-2.088;2022-09-03T20:05:16;21.80;69.00
17080;DHT22;8655;57.106;-2.088;2022-09-03T20:08:01;21.80;69.00
17080;DHT22;8655;57.106;-2.088;2022-09-03T20:10:49;21.80;69.00
17080;DHT22;8655;57.106;-2.088;2022-09-03T20:13:18;21.80;69.00
17080;DHT22;8655;57.106;-2.088;2022-09-03T20:23:52;21.80;68.90
17080;DHT22;8655;57.106;-2.088;2022-09-03T20:26:33;21.90;69.10
17080;DHT22;8655;57.106;-2.088;2022-09-03T20:29:44;21.90;69.00
17080;DHT22;8655;57.106;-2.088;2022-09-03T20:32:08;21.80;68.90
17080;DHT22;8655;57.106;-2.088;2022-09-03T20:37:36;21.80;69.00
17080;DHT22;8655;57.106;-2.088;2022-09-03T20:43:05;21.80;69.00
17080;DHT22;8655;57.106;-2.088;2022-09-03T20:51:21;21.80;69.00
17080;DHT22;8655;57.106;-2.088;2022-09-03T21:01:51;21.90;69.10
17080;DHT22;8655;57.106;-2.088;2022-09-03T21:10:11;21.80;68.90
17080;DHT22;8655;57.106;-2.088;2022-09-03T21:12:57;21.80;68.90
17080;DHT22;8655;57.106;-2.088;2022-09-03T21:15:57;21.80;68.90
17080;DHT22;8655;57.106;-2.088;2022-09-03T21:23:58;21.80;69.00
17080;DHT22;8655;57.106;-2.088;2022-09-03T21:26:28;21.80;68.90
17080;DHT22;8655;57.106;-2.088;2022-09-03T21:29:20;21.80;69.00
17080;DHT22;8655;57.106;-2.088;2022-09-03T21:34:24;21.80;68.90
17080;DHT22;8655;57.106;-2.088;2022-09-03T21:36:53;21.80;69.00
17080;DHT22;8655;57.106;-2.088;2022-09-03T21:47:15;21.80;68.90
17080;DHT22;8655;57.106;-2.088;2022-09-03T21:50:02;21.80;68.90
17080;DHT22;8655;57.106;-2.088;2022-09-03T21:56:36;21.80;68.90